Time;durP1;ratioP1;P1;durP2;ratioP2;P2;SDS_P1;SDS_P2;PMS_P1;PMS_P2;Temp;Humidity;BMP_temperature;BMP_pressure;BME280_temperature;BME280_humidity;BME280_pressure;Samples;Min_cycle;Max_cycle;Signal;HPM_P1;HPM_P2
2022/07/01 00:00:25;;;;;;;10.13;8.20;;;24.80;66.90;;;;;;5036432;28;20033;-58
2022/07/01 00:02:50;;;;;;;9.50;8.38;;;24.80;66.90;;;;;;5021412;28;20148;-58
2022/07/01 00:05:15;;;;;;;10.77;8.38;;;24.80;66.80;;;;;;5023449;28;20038;-59
2022/07/01 00:07:41;;;;;;;10.55;8.13;;;24.80;66.80;;;;;;5040843;28;20031;-58
2022/07/01 00:10:07;;;;;;;11.60;8.55;;;24.80;66.80;;;;;;5040961;28;20423;-58
2022/07/01 00:12:32;;;;;;;10.60;8.38;;;24.80;66.80;;;;;;5041466;28;20115;-59
2022/07/01 00:14:58;;;;;;;9.90;8.48;;;24.80;66.80;;;;;;5041342;28;20044;-59
2022/07/01 00:17:23;;;;;;;9.05;7.95;;;24.80;66.80;;;;;;5022788;28;20496;-59
2022/07/01 00:19:50;;;;;;;11.18;8.30;;;24.80;66.80;;;;;;5021151;28;20033;-58
2022/07/01 00:22:15;;;;;;;8.90;7.57;;;24.80;66.80;;;;;;5037879;28;20037;-59
2022/07/01 00:24:41;;;;;;;12.68;8.52;;;24.80;66.80;;;;;;5040963;28;20108;-59
2022/07/01 00:27:07;;;;;;;12.73;7.82;;;24.80;66.70;;;;;;5041486;28;20508;-59
2022/07/01 00:29:33;;;;;;;11.93;7.97;;;24.80;66.70;;;;;;5040246;28;20033;-58
2022/07/01 00:31:59;;;;;;;8.43;7.53;;;24.80;66.60;;;;;;5027590;28;20022;-60
2022/07/01 00:34:24;;;;;;;8.95;7.53;;;24.80;66.40;;;;;;5021232;28;20035;-59
2022/07/01 00:36:50;;;;;;;9.48;7.53;;;24.80;66.50;;;;;;5031892;28;20385;-59
2022/07/01 00:39:15;;;;;;;9.48;7.43;;;24.80;66.50;;;;;;5040147;28;20040;-58
2022/07/01 00:41:41;;;;;;;9.13;7.65;;;24.80;66.60;;;;;;5031453;28;20369;-58
2022/07/01 00:44:15;;;;;;;9.60;7.60;;;24.80;66.40;;;;;;5021203;28;20495;-59
2022/07/01 00:46:41;;;;;;;9.15;7.32;;;24.80;66.40;;;;;;5028818;28;21642;-59
2022/07/01 00:49:06;;;;;;;7.95;7.15;;;24.80;66.40;;;;;;5040685;28;20033;-58
2022/07/01 00:51:32;;;;;;;8.20;7.20;;;24.80;66.40;;;;;;5035136;28;20034;-59
2022/07/01 00:53:58;;;;;;;8.27;7.45;;;24.80;66.30;;;;;;5024247;28;20164;-59
2022/07/01 00:56:23;;;;;;;9.23;7.63;;;24.80;66.30;;;;;;4995757;28;20395;-58
2022/07/01 00:58:49;;;;;;;10.90;7.82;;;24.80;66.20;;;;;;5044121;28;20033;-58
2022/07/01 01:01:14;;;;;;;10.10;7.22;;;24.80;66.20;;;;;;5041689;28;20045;-57
2022/07/01 01:03:40;;;;;;;11.88;7.30;;;24.80;66.30;;;;;;5024453;28;20044;-63
2022/07/01 01:06:06;;;;;;;9.10;7.50;;;24.80;66.20;;;;;;5025657;28;20030;-58
2022/07/01 01:08:31;;;;;;;8.52;6.53;;;24.80;66.30;;;;;;5025848;28;20029;-57
2022/07/01 01:10:56;;;;;;;13.50;7.32;;;24.80;66.10;;;;;;5043830;28;20135;-58
2022/07/01 01:13:22;;;;;;;9.60;7.10;;;24.80;66.10;;;;;;5024690;28;20711;-58
2022/07/01 01:15:47;;;;;;;7.72;6.70;;;24.80;66.20;;;;;;5024522;28;20056;-57
2022/07/01 01:18:13;;;;;;;8.02;6.97;;;24.80;66.10;;;;;;5023289;28;20033;-58
2022/07/01 01:20:39;;;;;;;8.27;7.40;;;24.80;66.10;;;;;;5026360;28;20025;-57
2022/07/01 01:23:05;;;;;;;7.55;6.85;;;24.80;66.10;;;;;;5028528;28;20394;-58
2022/07/01 01:25:31;;;;;;;8.90;6.68;;;24.80;66.20;;;;;;5023938;28;20041;-59
2022/07/01 01:27:57;;;;;;;8.00;7.07;;;24.80;66.10;;;;;;5037025;28;20033;-58
2022/07/01 01:30:22;;;;;;;8.55;7.05;;;24.80;66.30;;;;;;5025712;28;20098;-58
2022/07/01 01:32:49;;;;;;;8.38;6.75;;;24.80;66.30;;;;;;5043898;28;20424;-57
2022/07/01 01:35:15;;;;;;;10.20;7.15;;;24.80;66.30;;;;;;5043956;28;20037;-58
2022/07/01 01:37:40;;;;;;;8.27;7.35;;;24.80;66.30;;;;;;5034190;28;20095;-63
2022/07/01 01:40:06;;;;;;;12.55;7.20;;;24.80;66.30;;;;;;5024237;28;20033;-58
2022/07/01 01:42:32;;;;;;;7.75;6.95;;;24.80;66.30;;;;;;5031786;28;20051;-58
2022/07/01 01:44:58;;;;;;;11.52;7.13;;;24.80;66.40;;;;;;5043647;28;20053;-59
2022/07/01 01:47:23;;;;;;;7.93;6.93;;;24.70;66.40;;;;;;5037926;28;20057;-59
2022/07/01 01:49:49;;;;;;;10.10;7.20;;;24.70;66.40;;;;;;5028294;28;20041;-58
2022/07/01 01:52:14;;;;;;;10.80;6.95;;;24.70;66.40;;;;;;5031910;28;20033;-59
2022/07/01 01:54:40;;;;;;;8.30;7.22;;;24.80;66.40;;;;;;5045963;28;20392;-59
2022/07/01 01:57:05;;;;;;;8.27;6.72;;;24.70;66.20;;;;;;5041282;28;20079;-58
2022/07/01 01:59:31;;;;;;;8.25;7.28;;;24.70;66.20;;;;;;5023810;28;20810;-58
2022/07/01 02:01:56;;;;;;;11.40;7.32;;;24.70;66.20;;;;;;5024260;28;20104;-59
2022/07/01 02:04:24;;;;;;;7.90;6.93;;;24.70;66.30;;;;;;5043081;28;20029;-58
2022/07/01 02:06:50;;;;;;;9.15;6.63;;;24.70;66.30;;;;;;5043959;28;20616;-58
2022/07/01 02:09:16;;;;;;;7.80;7.00;;;24.70;66.20;;;;;;5024388;28;20044;-57
2022/07/01 02:11:41;;;;;;;8.10;6.72;;;24.70;66.30;;;;;;5023724;28;20025;-59
2022/07/01 02:14:07;;;;;;;8.88;6.75;;;24.70;66.30;;;;;;5040380;28;20057;-58
2022/07/01 02:16:32;;;;;;;10.82;7.05;;;24.70;66.30;;;;;;5043754;28;20741;-59
2022/07/01 02:18:58;;;;;;;8.27;6.95;;;24.70;66.90;;;;;;5027655;28;20029;-58
2022/07/01 02:21:23;;;;;;;8.70;7.45;;;24.70;66.30;;;;;;4989416;28;20041;-56
2022/07/01 02:23:51;;;;;;;8.02;7.18;;;24.70;66.30;;;;;;5023317;28;20037;-57
2022/07/01 02:26:17;;;;;;;10.38;7.53;;;24.70;66.30;;;;;;5023162;28;20051;-59
2022/07/01 02:28:42;;;;;;;7.88;6.47;;;24.70;66.10;;;;;;5033725;28;20661;-59
2022/07/01 02:31:08;;;;;;;9.25;6.80;;;24.70;66.30;;;;;;5025546;28;20079;-58
2022/07/01 02:33:33;;;;;;;7.93;7.15;;;24.70;66.30;;;;;;5033423;28;20032;-57
2022/07/01 02:35:59;;;;;;;9.57;7.40;;;24.70;66.20;;;;;;5022697;28;20029;-59
2022/07/01 02:38:24;;;;;;;9.40;6.50;;;24.70;66.20;;;;;;5022640;28;20030;-58
2022/07/01 02:40:50;;;;;;;9.50;7.28;;;24.70;66.30;;;;;;5022365;28;20021;-58
2022/07/01 02:43:16;;;;;;;10.10;7.70;;;24.70;66.40;;;;;;5028268;28;20029;-58
2022/07/01 02:45:41;;;;;;;8.43;7.30;;;24.70;66.40;;;;;;5042982;28;20043;-62
2022/07/01 02:48:07;;;;;;;10.43;7.28;;;24.70;66.40;;;;;;5038892;28;20481;-59
2022/07/01 02:50:32;;;;;;;8.00;7.20;;;24.70;66.30;;;;;;5022353;28;20080;-58
2022/07/01 02:52:58;;;;;;;8.82;7.03;;;24.60;66.20;;;;;;5024570;28;20116;-59
2022/07/01 02:55:23;;;;;;;9.13;7.70;;;24.70;66.20;;;;;;5042336;28;20515;-59
2022/07/01 02:57:51;;;;;;;8.73;7.15;;;24.70;66.20;;;;;;5042474;28;20033;-58
2022/07/01 03:00:17;;;;;;;8.48;7.15;;;24.60;66.20;;;;;;5002455;28;20034;-60
2022/07/01 03:02:42;;;;;;;8.65;7.60;;;24.60;66.00;;;;;;5002465;28;20084;-60
2022/07/01 03:05:09;;;;;;;10.05;7.55;;;24.60;66.10;;;;;;5038940;28;20040;-58
2022/07/01 03:07:37;;;;;;;13.02;8.02;;;24.60;66.00;;;;;;5042240;28;20029;-59
2022/07/01 03:10:06;;;;;;;8.68;7.78;;;24.60;65.90;;;;;;5024861;28;20033;-58
2022/07/01 03:12:35;;;;;;;9.63;8.45;;;24.60;65.90;;;;;;5022568;28;20037;-58
2022/07/01 03:15:12;;;;;;;10.95;7.85;;;24.60;66.00;;;;;;5038435;28;20171;-58
2022/07/01 03:17:39;;;;;;;9.00;7.38;;;24.50;65.90;;;;;;5048295;28;20029;-59
2022/07/01 03:20:05;;;;;;;9.30;7.18;;;24.50;65.90;;;;;;5014068;28;20044;-59
2022/07/01 03:22:31;;;;;;;12.85;7.88;;;24.50;65.90;;;;;;5023663;28;20037;-61
2022/07/01 03:24:57;;;;;;;9.23;8.07;;;24.50;65.60;;;;;;5021174;28;20381;-58
2022/07/01 03:27:22;;;;;;;10.93;7.82;;;24.50;65.30;;;;;;5045427;28;20037;-59
2022/07/01 03:29:48;;;;;;;9.85;7.40;;;24.50;65.10;;;;;;5030453;28;20040;-59
2022/07/01 03:32:13;;;;;;;9.80;7.70;;;24.50;65.00;;;;;;5019389;28;20061;-59
2022/07/01 03:34:39;;;;;;;10.23;7.20;;;24.50;64.80;;;;;;5017094;28;20035;-58
2022/07/01 03:37:05;;;;;;;8.90;7.43;;;24.50;64.80;;;;;;5003096;28;20032;-60
2022/07/01 03:39:31;;;;;;;9.52;6.70;;;24.50;64.70;;;;;;5019771;28;20110;-59
2022/07/01 03:41:57;;;;;;;9.90;7.47;;;24.50;64.60;;;;;;5043053;28;20502;-59
2022/07/01 03:44:22;;;;;;;7.63;6.93;;;24.50;65.10;;;;;;5036359;28;20029;-58
2022/07/01 03:46:48;;;;;;;9.73;7.70;;;24.40;64.00;;;;;;5022651;28;20095;-59
2022/07/01 03:49:13;;;;;;;8.90;6.70;;;24.40;64.10;;;;;;5026185;28;20507;-59
2022/07/01 03:51:39;;;;;;;8.07;7.07;;;24.40;64.10;;;;;;5043061;28;20055;-59
2022/07/01 03:56:48;;;;;;;7.45;6.72;;;24.40;64.00;;;;;;5033567;22;20121;-58
2022/07/01 03:59:13;;;;;;;9.98;6.85;;;24.50;63.80;;;;;;5022160;28;20594;-58
2022/07/01 04:01:39;;;;;;;9.13;7.47;;;24.40;63.80;;;;;;5041479;28;20066;-58
2022/07/01 04:04:04;;;;;;;8.40;6.47;;;24.40;63.80;;;;;;5041569;28;20032;-58
2022/07/01 04:06:30;;;;;;;9.45;6.85;;;24.40;63.60;;;;;;5042569;28;20021;-59
2022/07/01 04:08:55;;;;;;;7.63;6.22;;;24.40;63.40;;;;;;5040097;28;20641;-58
2022/07/01 04:11:21;;;;;;;8.63;6.53;;;24.30;63.10;;;;;;5041348;28;20071;-59
2022/07/01 04:13:50;;;;;;;10.63;6.85;;;24.40;63.00;;;;;;5022983;28;20032;-60
2022/07/01 04:16:18;;;;;;;9.05;6.80;;;24.40;63.30;;;;;;5041579;28;20031;-57
2022/07/01 04:18:44;;;;;;;13.30;7.18;;;24.40;63.40;;;;;;5042403;28;20036;-58
2022/07/01 04:23:55;;;;;;;14.70;6.53;;;24.40;63.70;;;;;;5039307;28;20141;-59
2022/07/01 04:26:20;;;;;;;14.60;6.60;;;24.40;64.50;;;;;;5041849;28;20113;-56
2022/07/01 04:28:46;;;;;;;8.30;7.28;;;24.30;64.90;;;;;;5037973;28;20371;-58
2022/07/01 04:31:11;;;;;;;11.77;6.65;;;24.30;64.60;;;;;;5041388;28;20025;-59
2022/07/01 04:33:37;;;;;;;7.40;6.30;;;24.30;64.40;;;;;;5040501;28;20087;-59
2022/07/01 04:36:02;;;;;;;11.13;6.82;;;24.30;64.40;;;;;;5053971;28;20037;-56
2022/07/01 04:38:28;;;;;;;7.47;6.55;;;24.30;64.00;;;;;;5060304;28;20707;-58
2022/07/01 04:43:37;;;;;;;9.98;7.03;;;24.30;63.80;;;;;;5039732;28;20101;-58
2022/07/01 04:46:03;;;;;;;10.00;7.13;;;24.30;63.60;;;;;;5051604;28;20127;-58
2022/07/01 04:48:28;;;;;;;18.20;7.57;;;24.30;63.70;;;;;;5060069;28;20031;-58
2022/07/01 04:50:54;;;;;;;13.88;6.93;;;24.20;63.60;;;;;;5049835;28;20029;-57
2022/07/01 04:53:19;;;;;;;10.90;7.40;;;24.20;63.50;;;;;;5040394;28;20102;-58
2022/07/01 04:55:45;;;;;;;10.05;7.20;;;24.10;63.70;;;;;;5049165;28;20622;-58
2022/07/01 04:58:10;;;;;;;30.17;8.23;;;24.10;63.70;;;;;;5061144;28;20085;-58
2022/07/01 05:00:35;;;;;;;11.93;7.05;;;24.10;63.70;;;;;;5036279;28;20048;-58
2022/07/01 05:03:01;;;;;;;12.90;6.55;;;24.00;64.00;;;;;;5040397;28;20029;-59
2022/07/01 05:05:27;;;;;;;9.50;7.18;;;24.00;63.80;;;;;;5038201;28;20664;-59
2022/07/01 05:07:52;;;;;;;11.57;6.80;;;24.00;63.80;;;;;;5039995;28;20036;-58
2022/07/01 05:10:17;;;;;;;11.20;6.88;;;24.00;63.90;;;;;;5042833;28;20036;-58
2022/07/01 05:12:43;;;;;;;11.45;6.53;;;24.10;63.90;;;;;;5060837;28;20029;-65
2022/07/01 05:15:09;;;;;;;22.95;7.80;;;24.00;63.80;;;;;;5061140;28;20082;-59
2022/07/01 05:23:02;;;;;;;18.23;7.82;;;24.00;64.70;;;;;;5060377;28;20454;-58
2022/07/01 05:25:28;;;;;;;21.70;7.68;;;24.00;64.40;;;;;;5059347;28;20036;-56
2022/07/01 05:27:56;;;;;;;22.60;7.32;;;24.10;64.20;;;;;;5040687;28;20036;-59
2022/07/01 05:30:22;;;;;;;18.02;7.07;;;24.20;64.00;;;;;;5040423;28;20033;-59
2022/07/01 05:32:48;;;;;;;15.88;6.90;;;24.30;64.00;;;;;;5060042;28;20025;-58
2022/07/01 05:35:14;;;;;;;14.55;6.32;;;24.30;63.80;;;;;;5061159;28;20052;-58
2022/07/01 05:37:40;;;;;;;14.32;6.70;;;24.40;64.10;;;;;;5041596;28;20035;-58
2022/07/01 05:40:06;;;;;;;13.30;6.18;;;24.30;64.30;;;;;;5043717;28;20029;-59
2022/07/01 05:42:31;;;;;;;11.75;6.60;;;24.40;64.30;;;;;;5042899;28;20495;-57
2022/07/01 05:44:57;;;;;;;10.63;6.82;;;24.40;64.20;;;;;;5064172;28;20050;-58
2022/07/01 05:47:22;;;;;;;10.80;6.13;;;24.40;64.30;;;;;;5049281;28;20036;-58
2022/07/01 05:49:48;;;;;;;17.80;7.30;;;24.40;64.30;;;;;;5043169;28;20053;-57
2022/07/01 05:52:13;;;;;;;10.73;6.80;;;24.40;64.50;;;;;;5056782;28;20033;-57
2022/07/01 05:54:39;;;;;;;11.43;6.60;;;24.50;64.50;;;;;;5063733;28;20534;-58
2022/07/01 05:57:04;;;;;;;12.02;6.95;;;24.50;64.80;;;;;;5053501;28;20060;-55
2022/07/01 05:59:30;;;;;;;11.07;6.68;;;24.40;64.30;;;;;;5043226;28;20082;-55
2022/07/01 06:01:55;;;;;;;7.45;6.72;;;24.40;64.40;;;;;;5051900;28;20048;-60
2022/07/01 06:04:21;;;;;;;8.55;5.90;;;24.40;64.30;;;;;;5063460;28;20036;-57
2022/07/01 06:06:46;;;;;;;8.38;5.88;;;24.40;64.20;;;;;;5056990;28;20380;-58
2022/07/01 06:09:12;;;;;;;8.75;6.20;;;24.40;64.20;;;;;;5043962;28;20041;-59
2022/07/01 06:11:37;;;;;;;9.48;5.85;;;24.40;64.10;;;;;;5048873;28;20056;-57
2022/07/01 06:14:03;;;;;;;6.88;5.97;;;24.50;64.10;;;;;;5063662;28;20434;-58
2022/07/01 06:16:28;;;;;;;6.10;5.50;;;24.50;64.20;;;;;;5053434;28;20033;-58
2022/07/01 06:18:54;;;;;;;8.80;5.70;;;24.50;64.10;;;;;;5043346;28;20083;-58
2022/07/01 06:21:19;;;;;;;8.90;6.05;;;24.50;64.10;;;;;;5043993;28;20459;-57
2022/07/01 06:23:45;;;;;;;11.07;6.13;;;24.50;64.10;;;;;;5063817;28;20033;-62
2022/07/01 06:26:12;;;;;;;8.23;5.72;;;24.50;64.20;;;;;;5062972;28;20021;-58
2022/07/01 06:28:37;;;;;;;10.88;6.43;;;24.50;64.60;;;;;;5025340;28;20195;-59
2022/07/01 06:31:03;;;;;;;15.45;7.50;;;24.50;64.70;;;;;;5045810;28;20115;-58
2022/07/01 06:33:30;;;;;;;17.77;7.78;;;24.50;64.80;;;;;;5061370;28;20048;-58
2022/07/01 06:35:56;;;;;;;13.50;7.70;;;24.50;64.90;;;;;;5063643;28;20029;-58
2022/07/01 06:38:22;;;;;;;13.73;7.25;;;24.40;65.10;;;;;;5047962;28;20033;-59
2022/07/01 06:41:26;;;;;;;20.25;7.50;;;24.40;65.10;;;;;;5043101;28;20372;-58
2022/07/01 06:43:33;;;;;;;19.23;7.68;;;24.40;65.20;;;;;;5058814;28;20508;-59
2022/07/01 06:45:58;;;;;;;15.25;7.25;;;24.40;65.20;;;;;;5063088;28;20040;-57
2022/07/01 06:48:24;;;;;;;15.52;7.45;;;24.40;65.00;;;;;;5048074;28;20036;-58
2022/07/01 06:50:49;;;;;;;10.35;7.53;;;24.40;65.10;;;;;;5042649;28;20098;-59
2022/07/01 06:53:14;;;;;;;16.35;7.65;;;24.40;65.00;;;;;;5055577;28;20036;-57
2022/07/01 06:55:40;;;;;;;19.08;7.65;;;24.40;64.90;;;;;;5062414;28;22147;-58
2022/07/01 06:58:05;;;;;;;12.88;7.85;;;24.40;65.10;;;;;;5051586;28;20041;-58
2022/07/01 07:00:31;;;;;;;16.88;8.98;;;24.40;64.90;;;;;;5042060;28;20094;-59
2022/07/01 07:02:56;;;;;;;91.07;20.27;;;24.40;64.80;;;;;;5051260;28;20078;-55
2022/07/01 07:05:22;;;;;;;55.97;13.93;;;24.40;65.00;;;;;;5062664;28;20032;-62
2022/07/01 07:07:47;;;;;;;21.90;7.88;;;24.50;65.30;;;;;;5055820;28;20118;-59
2022/07/01 07:10:13;;;;;;;15.57;7.72;;;24.50;64.70;;;;;;5042402;28;20515;-56
2022/07/01 07:12:38;;;;;;;19.70;8.25;;;24.50;64.40;;;;;;5047188;28;20066;-57
2022/07/01 07:15:05;;;;;;;94.22;16.50;;;24.40;64.80;;;;;;5062185;28;20033;-59
2022/07/01 07:17:30;;;;;;;121.85;16.45;;;24.30;67.10;;;;;;5059397;28;20068;-54
2022/07/01 07:19:56;;;;;;;77.00;16.00;;;24.20;65.80;;;;;;5041785;28;20041;-57
2022/07/01 07:22:22;;;;;;;23.73;11.73;;;24.20;65.40;;;;;;5014804;28;20530;-59
2022/07/01 07:24:47;;;;;;;17.60;11.93;;;24.20;65.00;;;;;;5054223;28;20395;-58
2022/07/01 07:27:13;;;;;;;14.55;10.43;;;24.00;64.80;;;;;;5062574;28;20132;-58
2022/07/01 07:29:39;;;;;;;18.77;10.43;;;24.10;64.70;;;;;;5061430;28;20062;-59
2022/07/01 07:32:04;;;;;;;12.20;10.20;;;24.10;64.70;;;;;;5061831;28;20445;-58
2022/07/01 07:34:30;;;;;;;13.65;9.88;;;24.10;64.50;;;;;;5045046;28;20032;-58
2022/07/01 07:36:55;;;;;;;15.07;9.32;;;24.10;64.50;;;;;;5042047;28;20075;-58
2022/07/01 07:39:21;;;;;;;16.02;9.55;;;24.20;64.50;;;;;;5057279;28;20025;-58
2022/07/01 07:41:46;;;;;;;11.38;9.00;;;24.20;64.40;;;;;;5061546;28;20021;-59
2022/07/01 07:44:12;;;;;;;10.93;8.63;;;24.20;63.80;;;;;;5048872;28;20033;-59
2022/07/01 07:46:37;;;;;;;14.15;9.25;;;24.20;63.80;;;;;;5042049;28;20029;-57
2022/07/01 07:49:03;;;;;;;15.57;8.90;;;24.20;63.50;;;;;;5053111;28;20029;-59
2022/07/01 07:51:28;;;;;;;17.45;8.88;;;24.20;63.60;;;;;;5061494;28;20029;-58
2022/07/01 07:53:54;;;;;;;14.48;8.35;;;24.20;63.60;;;;;;5052361;28;20764;-59
2022/07/01 07:56:20;;;;;;;14.75;8.57;;;24.30;63.40;;;;;;5041092;28;20029;-59
2022/07/01 07:58:46;;;;;;;14.55;7.88;;;24.30;63.40;;;;;;5027798;28;20162;-57
2022/07/01 08:01:11;;;;;;;9.95;8.40;;;24.30;63.30;;;;;;5060811;28;21289;-58
2022/07/01 08:03:36;;;;;;;10.77;7.57;;;24.30;63.20;;;;;;5055915;28;20404;-58
2022/07/01 08:06:02;;;;;;;8.82;7.28;;;24.30;63.10;;;;;;5041096;28;20021;-59
2022/07/01 08:08:27;;;;;;;8.60;7.20;;;24.30;63.10;;;;;;5042012;28;20040;-59
2022/07/01 08:10:53;;;;;;;9.85;7.07;;;24.30;63.20;;;;;;5041957;28;20032;-60
2022/07/01 08:13:19;;;;;;;11.93;7.32;;;24.30;63.40;;;;;;5048663;28;20025;-58
2022/07/01 08:15:44;;;;;;;9.77;8.10;;;24.30;63.60;;;;;;5067523;28;20025;-57
2022/07/01 08:18:10;;;;;;;10.68;6.72;;;24.30;64.00;;;;;;5063496;28;20044;-58
2022/07/01 08:20:35;;;;;;;9.20;8.05;;;24.30;64.10;;;;;;5044304;28;20428;-58
2022/07/01 08:23:01;;;;;;;9.32;7.75;;;24.30;64.20;;;;;;5043380;28;20036;-58
2022/07/01 08:25:26;;;;;;;12.50;7.82;;;24.20;64.20;;;;;;5060209;28;20040;-58
2022/07/01 08:27:52;;;;;;;8.35;7.55;;;24.20;64.30;;;;;;5062229;28;20056;-57
2022/07/01 08:30:17;;;;;;;8.38;7.57;;;24.20;64.20;;;;;;5045254;28;20460;-59
2022/07/01 08:32:44;;;;;;;8.63;7.40;;;24.30;64.20;;;;;;5042978;28;20044;-58
2022/07/01 08:35:10;;;;;;;8.98;8.07;;;24.30;64.20;;;;;;5056171;28;20028;-59
2022/07/01 08:37:35;;;;;;;8.30;7.32;;;24.20;64.10;;;;;;5062039;28;20032;-59
2022/07/01 08:40:01;;;;;;;9.00;8.07;;;24.20;64.10;;;;;;5048483;28;20496;-58
2022/07/01 08:42:26;;;;;;;8.32;7.53;;;24.20;64.10;;;;;;5041042;28;20029;-58
2022/07/01 08:44:52;;;;;;;8.18;7.47;;;24.20;64.00;;;;;;5051924;28;20027;-59
2022/07/01 08:47:17;;;;;;;9.80;6.88;;;24.20;63.90;;;;;;5043604;28;20079;-58
2022/07/01 08:49:44;;;;;;;8.60;7.80;;;24.20;63.80;;;;;;5035151;28;20696;-58
2022/07/01 08:52:09;;;;;;;8.38;7.60;;;24.20;63.70;;;;;;5023503;28;20242;-58
2022/07/01 08:54:37;;;;;;;11.85;7.93;;;24.20;63.70;;;;;;5048098;28;20116;-57
2022/07/01 08:57:03;;;;;;;11.30;8.00;;;24.20;63.70;;;;;;5060833;28;20124;-58
2022/07/01 08:59:29;;;;;;;8.27;7.50;;;24.20;63.70;;;;;;5037700;28;20033;-59
2022/07/01 09:01:59;;;;;;;14.48;7.70;;;24.20;63.70;;;;;;5041362;28;20299;-57
2022/07/01 09:04:24;;;;;;;11.55;7.72;;;24.20;63.60;;;;;;5045199;28;20021;-57
2022/07/01 09:06:50;;;;;;;12.73;8.13;;;24.20;63.60;;;;;;5043211;28;20032;-58
2022/07/01 09:09:20;;;;;;;10.02;8.30;;;24.20;63.60;;;;;;5040921;28;20047;-58
2022/07/01 09:11:53;;;;;;;13.75;8.88;;;24.20;63.70;;;;;;5023205;28;20032;-57
2022/07/01 09:14:20;;;;;;;13.52;8.45;;;24.10;63.30;;;;;;5045818;28;21484;-59
2022/07/01 09:16:50;;;;;;;13.23;7.75;;;24.10;63.20;;;;;;5046953;28;20021;-59
2022/07/01 09:19:16;;;;;;;11.63;6.97;;;24.10;63.30;;;;;;5063741;28;20040;-57
2022/07/01 09:21:42;;;;;;;9.75;7.05;;;24.20;63.40;;;;;;5026858;28;20044;-58
2022/07/01 09:24:30;;;;;;;9.80;7.32;;;24.10;63.30;;;;;;5046584;28;20037;-58
2022/07/01 09:26:58;;;;;;;7.88;6.72;;;24.10;63.30;;;;;;5010062;28;20083;-59
2022/07/01 09:29:31;;;;;;;13.80;7.90;;;24.10;63.30;;;;;;5026275;28;20033;-59
2022/07/01 09:31:57;;;;;;;8.80;7.22;;;24.10;64.30;;;;;;5048859;28;20031;-58
2022/07/01 09:34:22;;;;;;;11.52;7.82;;;24.10;64.90;;;;;;5065258;28;20029;-59
2022/07/01 09:36:54;;;;;;;9.52;6.57;;;24.10;64.50;;;;;;5045552;28;20387;-58
2022/07/01 09:39:20;;;;;;;9.10;6.63;;;24.10;64.20;;;;;;5044625;28;20688;-58
2022/07/01 09:41:45;;;;;;;11.55;6.90;;;24.10;64.20;;;;;;5064081;28;20039;-59
2022/07/01 09:44:11;;;;;;;11.48;7.40;;;24.10;64.10;;;;;;5064829;28;20487;-61
2022/07/01 09:46:36;;;;;;;12.85;7.53;;;24.10;64.00;;;;;;5048510;28;20499;-59
2022/07/01 09:49:02;;;;;;;10.40;6.25;;;24.10;63.90;;;;;;5044172;28;20040;-59
2022/07/01 09:51:30;;;;;;;13.27;7.95;;;24.10;63.90;;;;;;5058920;28;20037;-58
2022/07/01 09:53:56;;;;;;;15.02;7.10;;;24.10;64.10;;;;;;5047222;28;20134;-58
2022/07/01 09:56:23;;;;;;;25.20;7.35;;;24.10;64.00;;;;;;5051547;28;20053;-57
2022/07/01 09:58:48;;;;;;;11.10;6.28;;;24.10;64.10;;;;;;5044627;28;20238;-55
2022/07/01 10:01:15;;;;;;;10.10;6.30;;;24.10;64.50;;;;;;5056235;28;20721;-58
2022/07/01 10:03:40;;;;;;;7.10;5.93;;;24.10;64.80;;;;;;5064135;28;20032;-58
2022/07/01 10:06:27;;;;;;;9.77;5.60;;;24.10;64.80;;;;;;5036323;28;20025;-56
2022/07/01 10:09:23;;;;;;;8.95;5.75;;;24.10;65.00;;;;;;5043714;28;20536;-58
2022/07/01 10:11:48;;;;;;;8.63;5.25;;;24.10;64.70;;;;;;5036832;28;20065;-58
2022/07/01 10:14:14;;;;;;;7.70;5.68;;;24.10;64.50;;;;;;5063408;28;20531;-59
2022/07/01 10:16:39;;;;;;;9.70;5.55;;;24.10;64.20;;;;;;5012517;28;20091;-58
2022/07/01 10:19:20;;;;;;;10.43;5.05;;;24.10;64.40;;;;;;5021368;28;20582;-57
2022/07/01 10:21:45;;;;;;;9.88;5.55;;;24.10;64.40;;;;;;5022049;28;20508;-58
2022/07/01 10:24:17;;;;;;;8.70;3.83;;;24.10;64.30;;;;;;5061750;28;20024;-58
2022/07/01 10:26:43;;;;;;;5.85;3.90;;;24.10;64.00;;;;;;5048922;28;20448;-58
2022/07/01 10:29:36;;;;;;;8.20;3.85;;;24.10;63.90;;;;;;5024378;28;20029;-59
2022/07/01 10:32:11;;;;;;;6.20;3.15;;;24.10;63.80;;;;;;5021196;28;20036;-56
2022/07/01 10:34:39;;;;;;;;;;;24.10;63.70;;;;;;5044879;28;20400;-58
2022/07/01 10:37:08;;;;;;;2.95;2.38;;;24.10;63.60;;;;;;5048199;28;20277;-59
2022/07/01 10:40:03;;;;;;;3.15;2.60;;;24.10;63.50;;;;;;5041809;28;20127;-59
2022/07/01 10:42:52;;;;;;;2.60;2.40;;;24.10;63.40;;;;;;5036500;28;20678;-59
2022/07/01 10:45:18;;;;;;;2.00;1.88;;;24.10;63.40;;;;;;5061431;28;20085;-64
2022/07/01 10:47:43;;;;;;;2.45;2.25;;;24.10;63.30;;;;;;5044721;28;20028;-58
2022/07/01 10:50:10;;;;;;;2.90;2.22;;;24.00;63.10;;;;;;5023863;28;20033;-58
2022/07/01 10:52:36;;;;;;;2.42;2.00;;;24.10;63.20;;;;;;5057475;28;20391;-58
2022/07/01 10:55:06;;;;;;;1.70;1.60;;;24.10;63.10;;;;;;5062022;28;20028;-58
2022/07/01 10:57:41;;;;;;;1.88;1.58;;;24.00;63.00;;;;;;5047082;28;20041;-56
2022/07/01 11:00:06;;;;;;;1.55;1.30;;;24.00;63.00;;;;;;5041109;28;20121;-59
2022/07/01 11:02:38;;;;;;;1.83;1.45;;;24.10;63.00;;;;;;5055383;28;20606;-59
2022/07/01 11:05:03;;;;;;;1.50;1.38;;;24.00;63.00;;;;;;5061632;28;20025;-58
2022/07/01 11:07:34;;;;;;;2.65;1.60;;;23.90;63.00;;;;;;5048620;28;20453;-57
2022/07/01 11:10:00;;;;;;;1.60;1.50;;;23.90;62.80;;;;;;5006291;28;20033;-57
2022/07/01 11:12:27;;;;;;;2.55;1.27;;;24.00;62.80;;;;;;5052825;28;20029;-59
2022/07/01 11:14:53;;;;;;;2.75;1.52;;;24.00;62.70;;;;;;5042706;28;20041;-57
2022/07/01 11:17:19;;;;;;;2.70;1.33;;;23.90;62.50;;;;;;5032554;28;20751;-58
2022/07/01 11:19:49;;;;;;;2.75;1.52;;;24.00;62.70;;;;;;5023786;28;20134;-59
2022/07/01 11:22:25;;;;;;;1.23;1.13;;;24.00;62.60;;;;;;5049725;28;20116;-58
2022/07/01 11:24:51;;;;;;;1.35;1.25;;;23.90;62.70;;;;;;5061233;28;20029;-59
2022/07/01 11:27:17;;;;;;;1.65;1.30;;;23.90;62.60;;;;;;5035113;28;20573;-57
2022/07/01 11:29:42;;;;;;;1.27;1.10;;;23.90;62.60;;;;;;5040608;28;20036;-60
2022/07/01 11:32:08;;;;;;;1.55;1.27;;;23.90;62.70;;;;;;5046871;28;20051;-57
2022/07/01 11:34:34;;;;;;;1.50;1.40;;;23.90;62.70;;;;;;5061157;28;20056;-56
2022/07/01 11:39:44;;;;;;;3.55;1.40;;;23.90;62.20;;;;;;5040755;28;20747;-57
2022/07/01 11:42:11;;;;;;;1.10;1.00;;;23.90;62.50;;;;;;5028147;28;20119;-57
2022/07/01 11:44:41;;;;;;;1.52;1.35;;;23.90;62.50;;;;;;5061218;28;20043;-57
2022/07/01 11:47:09;;;;;;;1.27;1.17;;;23.90;62.40;;;;;;5057126;28;20074;-58
2022/07/01 11:49:42;;;;;;;1.50;1.40;;;23.90;62.30;;;;;;5023469;28;20115;-58
2022/07/01 11:52:10;;;;;;;1.85;1.10;;;23.90;62.50;;;;;;5027706;28;20047;-57
2022/07/01 11:54:39;;;;;;;1.50;1.33;;;23.90;62.40;;;;;;5043809;28;20680;-57
2022/07/01 11:57:09;;;;;;;1.90;1.40;;;23.90;62.30;;;;;;5058460;28;20239;-57
2022/07/01 11:59:36;;;;;;;1.00;0.90;;;23.90;62.30;;;;;;5040396;28;20114;-58
2022/07/01 12:02:02;;;;;;;1.40;1.00;;;23.90;62.30;;;;;;5041843;28;20025;-59
2022/07/01 12:04:29;;;;;;;0.88;0.88;;;23.90;62.20;;;;;;5060925;28;20025;-58
2022/07/01 12:06:55;;;;;;;1.30;1.10;;;23.90;62.30;;;;;;5060786;28;20032;-60
2022/07/01 12:09:20;;;;;;;1.27;1.17;;;23.90;62.20;;;;;;5002794;28;20124;-59
2022/07/01 12:11:51;;;;;;;2.38;1.15;;;23.90;62.20;;;;;;5019971;28;20392;-59
2022/07/01 12:14:25;;;;;;;2.58;1.35;;;23.90;62.20;;;;;;5057966;28;20455;-59
2022/07/01 12:16:51;;;;;;;1.35;1.15;;;23.90;62.10;;;;;;5060230;28;20022;-60
2022/07/01 12:19:17;;;;;;;3.53;1.42;;;23.90;62.20;;;;;;5046437;28;20026;-58
2022/07/01 12:21:53;;;;;;;1.25;1.15;;;23.90;62.10;;;;;;5024666;28;20031;-59
2022/07/01 12:24:21;;;;;;;2.35;1.65;;;23.90;62.00;;;;;;5059079;28;20035;-60
2022/07/01 12:26:58;;;;;;;1.45;1.35;;;23.90;62.00;;;;;;5061136;28;20028;-57
2022/07/01 12:29:26;;;;;;;1.75;1.40;;;23.70;62.20;;;;;;5041725;28;20148;-58
2022/07/01 12:32:02;;;;;;;1.88;1.40;;;23.80;62.20;;;;;;5022369;28;20025;-56
2022/07/01 12:34:39;;;;;;;2.03;1.80;;;23.80;62.10;;;;;;5057563;28;20025;-59
2022/07/01 12:37:13;;;;;;;3.45;1.40;;;23.70;62.00;;;;;;5060310;28;20048;-58
2022/07/01 12:39:43;;;;;;;1.85;1.75;;;23.80;62.10;;;;;;5023916;28;20108;-58
2022/07/01 12:42:09;;;;;;;1.60;1.50;;;23.70;62.10;;;;;;5039704;28;20049;-59
2022/07/01 12:44:34;;;;;;;1.50;1.40;;;23.80;62.20;;;;;;5039013;28;20452;-58
2022/07/01 12:47:16;;;;;;;2.40;2.20;;;23.80;62.10;;;;;;5025605;28;20082;-58
2022/07/01 12:49:42;;;;;;;1.88;1.77;;;23.70;62.20;;;;;;5029108;28;20067;-57
2022/07/01 12:52:25;;;;;;;2.35;1.75;;;23.70;62.00;;;;;;5044029;28;20029;-58
2022/07/01 12:54:51;;;;;;;1.67;1.58;;;23.80;62.10;;;;;;5043721;28;20033;-57
2022/07/01 12:57:16;;;;;;;1.75;1.65;;;23.80;62.10;;;;;;5064149;28;20033;-58